createdAt,value
2022-11-05T00:01:55.194Z,100424.81
2022-11-05T00:04:23.565Z,100421.78
2022-11-05T00:06:56.968Z,100422.84
2022-11-05T00:09:23.708Z,100422.16
2022-11-05T00:11:50.498Z,100426.06
2022-11-05T00:14:17.007Z,100435.03
2022-11-05T00:16:43.431Z,100432.97
2022-11-05T00:19:10.187Z,100429.91
2022-11-05T00:21:38.613Z,100445.00
2022-11-05T00:24:07.380Z,100446.13
2022-11-05T00:26:33.838Z,100458.16
2022-11-05T00:29:00.292Z,100458.78
2022-11-05T00:31:26.780Z,100461.00
2022-11-05T00:33:53.209Z,100461.91
2022-11-05T00:36:19.644Z,100455.72
2022-11-05T00:38:46.080Z,100463.19
2022-11-05T00:41:13.913Z,100471.59
2022-11-05T00:43:40.352Z,100469.94
2022-11-05T00:46:06.818Z,100474.88
2022-11-05T00:48:33.325Z,100481.34
2022-11-05T00:50:59.827Z,100485.00
2022-11-05T00:53:26.291Z,100482.09
2022-11-05T00:55:52.747Z,100475.22
2022-11-05T00:58:22.180Z,100478.03
2022-11-05T01:00:50.607Z,100487.16
2022-11-05T01:03:19.260Z,100480.59
2022-11-05T01:05:47.648Z,100485.31
2022-11-05T01:08:15.993Z,100486.78
2022-11-05T01:10:43.358Z,100487.34
2022-11-05T01:13:13.184Z,100488.06
2022-11-05T01:15:42.080Z,100488.34
2022-11-05T01:18:08.661Z,100490.44
2022-11-05T01:20:35.096Z,100491.44
2022-11-05T01:23:01.583Z,100505.03
2022-11-05T01:25:28.062Z,100497.06
2022-11-05T01:27:54.565Z,100508.97
2022-11-05T01:30:21.363Z,100507.72
2022-11-05T01:32:49.149Z,100515.28
2022-11-05T01:35:17.517Z,100521.59
2022-11-05T01:37:44.897Z,100521.03
2022-11-05T01:40:14.073Z,100524.81
2022-11-05T01:42:40.411Z,100523.81
2022-11-05T01:45:16.589Z,100522.59
2022-11-05T01:47:52.941Z,100524.97
2022-11-05T01:50:34.310Z,100518.22
2022-11-05T01:53:04.949Z,100524.97
2022-11-05T01:55:35.941Z,100525.53
2022-11-05T01:58:05.317Z,100521.59
2022-11-05T02:00:31.761Z,100528.34
2022-11-05T02:03:00.062Z,100529.59
2022-11-05T02:05:27.055Z,100534.91
2022-11-05T02:07:54.973Z,100527.78
2022-11-05T02:10:22.093Z,100527.19
2022-11-05T02:12:48.529Z,100540.50
2022-11-05T02:15:17.424Z,100539.50
2022-11-05T02:17:54.802Z,100534.75
2022-11-05T02:20:35.570Z,100532.63
2022-11-05T02:23:51.412Z,100534.72
2022-11-05T02:27:05.937Z,100535.28
2022-11-05T02:30:02.026Z,100532.16
2022-11-05T02:32:59.717Z,100543.78
2022-11-05T02:35:41.569Z,100536.09
2022-11-05T02:38:11.243Z,100546.03
2022-11-05T02:40:49.746Z,100540.28
2022-11-05T02:43:24.738Z,100551.19
2022-11-05T02:46:00.850Z,100548.81
2022-11-05T02:48:35.335Z,100555.50
2022-11-05T02:51:07.688Z,100550.16
2022-11-05T02:53:41.391Z,100560.44
2022-11-05T02:56:14.176Z,100546.97
2022-11-05T02:58:41.558Z,100545.13
2022-11-05T03:01:09.882Z,100539.56
2022-11-05T03:03:40.572Z,100546.16
2022-11-05T03:06:25.887Z,100538.75
2022-11-05T03:09:09.242Z,100548.13
2022-11-05T03:11:44.972Z,100547.75
2022-11-05T03:14:21.487Z,100544.81
2022-11-05T03:16:53.716Z,100549.03
2022-11-05T03:19:33.524Z,100538.38
2022-11-05T03:22:06.327Z,100540.34
2022-11-05T03:24:35.435Z,100545.38
2022-11-05T03:27:06.464Z,100535.06
2022-11-05T03:29:37.043Z,100539.84
2022-11-05T03:32:05.514Z,100542.06
2022-11-05T03:34:42.528Z,100542.34
2022-11-05T03:37:10.665Z,100548.38
2022-11-05T03:39:41.456Z,100549.53
2022-11-05T03:42:13.108Z,100563.13
2022-11-05T03:44:45.063Z,100557.09
2022-11-05T03:47:15.674Z,100559.19
2022-11-05T03:49:53.638Z,100567.88
2022-11-05T03:52:24.366Z,100574.75
2022-11-05T03:54:50.865Z,100574.88
2022-11-05T03:57:21.334Z,100568.31
2022-11-05T03:59:49.858Z,100580.34
2022-11-05T04:02:19.106Z,100583.56
2022-11-05T04:04:47.123Z,100580.91
2022-11-05T04:07:13.582Z,100587.22
2022-11-05T04:09:40.009Z,100587.75
2022-11-05T04:12:06.623Z,100591.13
2022-11-05T04:14:33.651Z,100604.88
2022-11-05T04:17:00.161Z,100608.91
2022-11-05T04:19:26.660Z,100611.31
2022-11-05T04:21:54.551Z,100603.44
2022-11-05T04:24:21.035Z,100607.94
2022-11-05T04:26:47.526Z,100612.97
2022-11-05T04:29:14.039Z,100612.13
2022-11-05T04:31:40.683Z,100611.00
2022-11-05T04:34:07.158Z,100616.19
2022-11-05T04:36:33.618Z,100611.84
2022-11-05T04:39:01.506Z,100614.38
2022-11-05T04:41:27.980Z,100609.19
2022-11-05T04:43:54.496Z,100606.81
2022-11-05T04:46:20.974Z,100612.69
2022-11-05T04:48:47.431Z,100613.09
2022-11-05T04:51:13.995Z,100611.88
2022-11-05T04:53:40.445Z,100611.28
2022-11-05T04:56:10.633Z,100605.00
2022-11-05T04:58:41.059Z,100609.91
2022-11-05T05:01:11.871Z,100608.19
2022-11-05T05:03:38.383Z,100614.09
2022-11-05T05:06:05.012Z,100613.41
2022-11-05T05:08:31.472Z,100613.50
2022-11-05T05:11:01.360Z,100611.00
2022-11-05T05:13:29.187Z,100620.53
2022-11-05T05:15:55.641Z,100625.03
2022-11-05T05:18:22.209Z,100625.56
2022-11-05T05:20:48.695Z,100622.06
2022-11-05T05:23:15.155Z,100629.34
2022-11-05T05:25:41.683Z,100618.28
2022-11-05T05:28:08.212Z,100621.06
2022-11-05T05:30:36.179Z,100631.84
2022-11-05T05:33:03.036Z,100624.13
2022-11-05T05:35:29.564Z,100637.69
2022-11-05T05:37:56.481Z,100628.59
2022-11-05T05:40:24.040Z,100630.22
2022-11-05T05:42:53.608Z,100635.13
2022-11-05T05:45:20.094Z,100632.88
2022-11-05T05:47:47.913Z,100627.13
2022-11-05T05:50:14.398Z,100635.53
2022-11-05T05:52:40.820Z,100637.22
2022-11-05T05:55:07.749Z,100647.28
2022-11-05T05:57:34.233Z,100648.72
2022-11-05T06:00:00.693Z,100642.81
2022-11-05T06:02:27.265Z,100647.72
2022-11-05T06:04:55.158Z,100648.19
2022-11-05T06:07:21.577Z,100644.97
2022-11-05T06:09:48.120Z,100650.84
2022-11-05T06:12:14.666Z,100657.56
2022-11-05T06:14:41.161Z,100659.81
2022-11-05T06:17:07.977Z,100662.19
2022-11-05T06:19:34.498Z,100661.06
2022-11-05T06:22:02.312Z,100664.72
2022-11-05T06:24:28.921Z,100662.06
2022-11-05T06:26:55.457Z,100667.25
2022-11-05T06:29:21.946Z,100667.69
2022-11-05T06:31:48.402Z,100674.25
2022-11-05T06:34:14.843Z,100670.34
2022-11-05T06:36:41.272Z,100673.69
2022-11-05T06:39:11.549Z,100677.91
2022-11-05T06:42:04.103Z,100678.72
2022-11-05T06:44:24.671Z,100686.59
2022-11-05T06:46:51.121Z,100687.28
2022-11-05T06:49:17.538Z,100693.19
2022-11-05T06:51:43.992Z,100693.91
2022-11-05T06:54:12.388Z,100698.78
2022-11-05T06:56:38.931Z,100699.09
2022-11-05T06:59:05.460Z,100699.78
2022-11-05T07:01:32.342Z,100698.00
2022-11-05T07:03:58.956Z,100699.25
2022-11-05T07:06:26.485Z,100707.22
2022-11-05T07:08:53.530Z,100712.97
2022-11-05T07:11:21.404Z,100707.53
2022-11-05T07:13:47.944Z,100713.97
2022-11-05T07:16:14.389Z,100719.44
2022-11-05T07:18:40.889Z,100722.53
2022-11-05T07:21:07.333Z,100726.03
2022-11-05T07:23:33.853Z,100732.50
2022-11-05T07:26:00.313Z,100730.41
2022-11-05T07:28:28.201Z,100744.84
2022-11-05T07:30:54.671Z,100732.94
2022-11-05T07:33:21.131Z,100725.63
2022-11-05T07:35:47.654Z,100737.97
2022-11-05T07:38:14.079Z,100746.09
2022-11-05T07:40:40.738Z,100745.81
2022-11-05T07:43:07.336Z,100749.16
2022-11-05T07:45:35.413Z,100750.63
2022-11-05T07:48:03.902Z,100747.09
2022-11-05T07:50:32.900Z,100756.03
2022-11-05T07:52:59.960Z,100752.50
2022-11-05T07:55:26.510Z,100755.50
2022-11-05T07:57:53.028Z,100750.25
2022-11-05T08:00:21.117Z,100754.34
2022-11-05T08:03:06.650Z,100745.47
2022-11-05T08:05:36.347Z,100750.75
2022-11-05T08:08:03.838Z,100749.25
2022-11-05T08:10:30.338Z,100755.81
2022-11-05T08:12:56.877Z,100752.88
2022-11-05T08:15:24.158Z,100749.56
2022-11-05T08:17:57.117Z,100753.31
2022-11-05T08:20:25.090Z,100763.09
2022-11-05T08:22:51.727Z,100763.66
2022-11-05T08:25:18.178Z,100768.81
2022-11-05T08:27:44.729Z,100773.53
2022-11-05T08:30:11.806Z,100773.84
2022-11-05T08:32:38.494Z,100779.72
2022-11-05T08:35:06.560Z,100782.47
2022-11-05T08:37:34.359Z,100775.44
2022-11-05T08:40:00.877Z,100781.38
2022-11-05T08:42:27.389Z,100774.91
2022-11-05T08:44:53.881Z,100784.72
2022-11-05T08:47:20.622Z,100785.53
2022-11-05T08:49:47.093Z,100782.09
2022-11-05T08:52:13.589Z,100779.50
2022-11-05T08:54:42.465Z,100782.22
2022-11-05T08:57:08.801Z,100782.16
2022-11-05T08:59:35.246Z,100789.78
2022-11-05T09:02:01.780Z,100787.50
2022-11-05T09:04:28.499Z,100798.13
2022-11-05T09:06:55.073Z,100793.31
2022-11-05T09:09:21.562Z,100795.28
2022-11-05T09:12:11.220Z,100785.81
2022-11-05T09:14:35.790Z,100793.38
2022-11-05T09:17:02.336Z,100799.88
2022-11-05T09:19:28.819Z,100794.78
2022-11-05T09:21:55.270Z,100799.34
2022-11-05T09:24:21.694Z,100788.94
2022-11-05T09:26:49.549Z,100794.19
2022-11-05T09:29:15.994Z,100782.41
2022-11-05T09:31:42.599Z,100786.91
2022-11-05T09:34:09.104Z,100789.50
2022-11-05T09:36:35.509Z,100792.22
2022-11-05T09:39:01.945Z,100787.81
2022-11-05T09:41:31.674Z,100788.31
2022-11-05T09:44:05.210Z,100801.25
2022-11-05T09:46:41.146Z,100798.56
2022-11-05T09:49:23.730Z,100799.03
2022-11-05T09:51:51.734Z,100807.22
2022-11-05T09:54:21.283Z,100802.28
2022-11-05T09:56:47.773Z,100797.53
2022-11-05T09:59:18.576Z,100795.38
2022-11-05T10:01:45.840Z,100807.03
2022-11-05T10:04:16.552Z,100801.34
2022-11-05T10:06:47.543Z,100810.88
2022-11-05T10:09:20.931Z,100798.97
2022-11-05T10:11:51.506Z,100800.78
2022-11-05T10:14:23.958Z,100813.72
2022-11-05T10:16:55.491Z,100815.19
2022-11-05T10:19:25.478Z,100817.72
2022-11-05T10:22:10.949Z,100810.59
2022-11-05T10:24:40.515Z,100817.63
2022-11-05T10:27:07.276Z,100821.97
2022-11-05T10:29:35.868Z,100815.00
2022-11-05T10:32:05.509Z,100816.03
2022-11-05T10:34:34.880Z,100811.13
2022-11-05T10:37:01.435Z,100813.13
2022-11-05T10:39:31.049Z,100824.72
2022-11-05T10:42:23.659Z,100819.75
2022-11-05T10:45:00.039Z,100832.75
2022-11-05T10:47:43.530Z,100824.97
2022-11-05T10:50:12.609Z,100814.34
2022-11-05T10:52:44.063Z,100810.31
2022-11-05T10:55:16.846Z,100828.66
2022-11-05T10:57:43.363Z,100822.25
2022-11-05T11:00:26.663Z,100831.84
2022-11-05T11:02:55.125Z,100837.91
2022-11-05T11:05:24.557Z,100819.31
2022-11-05T11:08:01.067Z,100827.91
2022-11-05T11:10:30.318Z,100835.63
2022-11-05T11:12:57.413Z,100834.34
2022-11-05T11:15:28.006Z,100822.34
2022-11-05T11:17:55.705Z,100827.03
2022-11-05T11:20:28.590Z,100816.44
2022-11-05T11:23:11.340Z,100815.47
2022-11-05T11:25:44.957Z,100810.81
2022-11-05T11:28:19.041Z,100797.16
2022-11-05T11:30:53.876Z,100814.13
2022-11-05T11:33:23.904Z,100824.00
2022-11-05T11:35:50.540Z,100820.31
2022-11-05T11:38:18.825Z,100820.09
2022-11-05T11:40:48.501Z,100819.94
2022-11-05T11:43:29.001Z,100801.84
2022-11-05T11:46:03.810Z,100827.78
2022-11-05T11:48:36.142Z,100822.69
2022-11-05T11:51:17.752Z,100830.00
2022-11-05T11:53:44.309Z,100825.47
2022-11-05T11:56:16.878Z,100831.38
2022-11-05T11:58:46.767Z,100823.16
2022-11-05T12:01:48.804Z,100824.66
2022-11-05T12:04:29.189Z,100819.59
2022-11-05T12:07:10.277Z,100821.06
2022-11-05T12:09:54.854Z,100821.97
2022-11-05T12:12:28.593Z,100820.97
2022-11-05T12:15:01.113Z,100812.91
2022-11-05T12:17:46.697Z,100818.16
2022-11-05T12:20:38.369Z,100817.63
2022-11-05T12:23:34.617Z,100827.03
2022-11-05T12:26:11.585Z,100825.41
2022-11-05T12:29:17.351Z,100818.03
2022-11-05T12:31:47.981Z,100824.59
2022-11-05T12:34:30.585Z,100807.66
2022-11-05T12:37:11.799Z,100813.00
2022-11-05T12:39:59.258Z,100820.06
2022-11-05T12:42:41.066Z,100791.22
2022-11-05T12:45:20.931Z,100812.50
2022-11-05T12:48:04.208Z,100812.53
2022-11-05T12:50:38.327Z,100795.41
2022-11-05T12:53:33.030Z,100802.09
2022-11-05T12:56:03.831Z,100803.25
2022-11-05T12:58:34.566Z,100803.75
2022-11-05T13:01:11.499Z,100782.19
2022-11-05T13:03:43.613Z,100795.56
2022-11-05T13:06:13.370Z,100789.88
2022-11-05T13:08:44.931Z,100791.03
2022-11-05T13:11:18.887Z,100757.31
2022-11-05T13:13:51.566Z,100777.97
2022-11-05T13:16:25.657Z,100774.44
2022-11-05T13:18:54.902Z,100779.13
2022-11-05T13:21:25.031Z,100775.63
2022-11-05T13:23:59.606Z,100771.09
2022-11-05T13:26:31.264Z,100775.63
2022-11-05T13:29:05.394Z,100737.91
2022-11-05T13:31:36.754Z,100764.06
2022-11-05T13:34:09.078Z,100772.44
2022-11-05T13:36:45.863Z,100772.78
2022-11-05T13:39:19.314Z,100780.19
2022-11-05T13:42:03.286Z,100768.28
2022-11-05T13:44:48.071Z,100734.06
2022-11-05T13:47:45.971Z,100750.50
2022-11-05T13:50:26.923Z,100735.59
2022-11-05T13:53:11.065Z,100757.19
2022-11-05T13:56:01.529Z,100755.84
2022-11-05T13:58:43.163Z,100745.78
2022-11-05T14:01:18.248Z,100757.38
2022-11-05T14:03:47.675Z,100754.84
2022-11-05T14:06:14.567Z,100737.56
2022-11-05T14:08:45.531Z,100741.75
2022-11-05T14:11:22.015Z,100732.50
2022-11-05T14:13:53.906Z,100742.59
2022-11-05T14:16:21.930Z,100735.19
2022-11-05T14:18:53.848Z,100736.84
2022-11-05T14:21:46.265Z,100725.78
2022-11-05T14:24:28.438Z,100734.34
2022-11-05T14:27:32.493Z,100729.16
2022-11-05T14:30:00.579Z,100716.44
2022-11-05T14:32:43.139Z,100715.56
2022-11-05T14:35:34.482Z,100733.13
2022-11-05T14:38:01.648Z,100719.22
2022-11-05T14:40:37.023Z,100723.09
2022-11-05T14:43:07.184Z,100724.56
2022-11-05T14:45:40.186Z,100709.91
2022-11-05T14:48:24.339Z,100726.06
2022-11-05T14:50:51.357Z,100710.34
2022-11-05T14:53:27.080Z,100714.97
2022-11-05T14:56:01.174Z,100720.94
2022-11-05T14:58:33.512Z,100723.47
2022-11-05T15:01:03.610Z,100726.81
2022-11-05T15:03:59.181Z,100722.31
2022-11-05T15:06:31.386Z,100726.66
2022-11-05T15:09:13.216Z,100724.69
2022-11-05T15:11:43.349Z,100729.97
2022-11-05T15:14:20.052Z,100726.53
2022-11-05T15:16:54.388Z,100732.16
2022-11-05T15:19:26.795Z,100733.41
2022-11-05T15:21:56.456Z,100718.50
2022-11-05T15:24:23.835Z,100707.22
2022-11-05T15:26:58.068Z,100731.41
2022-11-05T15:29:29.196Z,100740.44
2022-11-05T15:31:58.272Z,100728.81
2022-11-05T15:34:26.074Z,100730.72
2022-11-05T15:36:54.884Z,100716.09
2022-11-05T15:39:29.988Z,100731.88
2022-11-05T15:41:57.737Z,100715.09
2022-11-05T15:44:26.930Z,100718.75
2022-11-05T15:47:13.345Z,100731.19
2022-11-05T15:49:41.481Z,100725.63
2022-11-05T15:52:11.593Z,100735.19
2022-11-05T15:54:38.944Z,100720.56
2022-11-05T15:57:05.989Z,100730.75
2022-11-05T15:59:32.688Z,100732.72
2022-11-05T16:02:18.976Z,100728.91
2022-11-05T16:04:48.216Z,100731.69
2022-11-05T16:07:15.455Z,100731.69
2022-11-05T16:09:42.665Z,100731.34
2022-11-05T16:12:13.081Z,100733.66
2022-11-05T16:14:39.973Z,100739.16
2022-11-05T16:17:24.233Z,100736.81
2022-11-05T16:19:52.072Z,100742.16
2022-11-05T16:22:18.653Z,100748.81
2022-11-05T16:24:45.729Z,100745.47
2022-11-05T16:27:18.124Z,100747.97
2022-11-05T16:33:04.522Z,100741.13
2022-11-05T16:35:32.789Z,100745.25
2022-11-05T16:38:00.694Z,100752.16
2022-11-05T16:40:27.070Z,100744.22
2022-11-05T16:42:53.974Z,100751.03
2022-11-05T16:45:21.562Z,100757.75
2022-11-05T16:47:47.941Z,100746.22
2022-11-05T16:50:19.535Z,100745.69
2022-11-05T16:52:50.402Z,100753.72
2022-11-05T16:55:17.547Z,100749.16
2022-11-05T16:57:44.839Z,100757.00
2022-11-05T17:00:13.231Z,100760.34
2022-11-05T17:02:39.733Z,100757.31
2022-11-05T17:05:06.811Z,100762.66
2022-11-05T17:07:37.203Z,100754.28
2022-11-05T17:10:16.203Z,100758.78
2022-11-05T17:12:43.398Z,100756.13
2022-11-05T17:15:27.711Z,100759.94
2022-11-05T17:17:57.697Z,100753.44
2022-11-05T17:20:29.080Z,100752.38
2022-11-05T17:22:56.638Z,100748.22
2022-11-05T17:25:28.454Z,100745.03
2022-11-05T17:27:54.879Z,100752.81
2022-11-05T17:30:21.419Z,100748.78
2022-11-05T17:32:48.023Z,100752.44
2022-11-05T17:35:14.366Z,100745.75
2022-11-05T17:37:41.228Z,100747.50
2022-11-05T17:40:08.573Z,100740.88
2022-11-05T17:42:36.229Z,100748.19
2022-11-05T17:45:02.594Z,100756.81
2022-11-05T17:47:29.706Z,100754.53
2022-11-05T17:49:56.044Z,100761.84
2022-11-05T17:52:22.392Z,100761.31
2022-11-05T17:54:48.702Z,100763.97
2022-11-05T17:59:41.045Z,100761.66
2022-11-05T18:02:09.283Z,100768.25
2022-11-05T18:04:35.680Z,100776.81
2022-11-05T18:07:02.033Z,100771.63
2022-11-05T18:09:28.741Z,100774.59
2022-11-05T18:12:32.318Z,100769.13
2022-11-05T18:14:58.673Z,100769.56
2022-11-05T18:18:37.370Z,100769.41
2022-11-05T18:21:03.825Z,100771.56
2022-11-05T18:23:30.131Z,100768.19
2022-11-05T18:25:56.454Z,100767.81
2022-11-05T18:28:22.752Z,100767.41
2022-11-05T18:30:49.035Z,100771.47
2022-11-05T18:33:15.599Z,100769.09
2022-11-05T18:35:44.410Z,100768.88
2022-11-05T18:38:11.072Z,100761.69
2022-11-05T18:40:37.394Z,100763.69
2022-11-05T18:43:03.735Z,100767.31
2022-11-05T18:45:30.163Z,100765.28
2022-11-05T18:47:56.526Z,100756.56
2022-11-05T18:50:22.844Z,100761.59
2022-11-05T18:52:50.491Z,100760.00
2022-11-05T18:55:16.847Z,100759.19
2022-11-05T18:57:43.147Z,100755.44
2022-11-05T19:00:10.024Z,100753.59
2022-11-05T19:02:36.418Z,100746.72
2022-11-05T19:07:49.107Z,100749.34
2022-11-05T19:10:17.091Z,100749.16
2022-11-05T19:12:43.366Z,100753.44
2022-11-05T19:15:09.924Z,100746.97
2022-11-05T19:17:36.423Z,100751.31
2022-11-05T19:20:03.516Z,100749.47
2022-11-05T19:22:29.838Z,100756.09
2022-11-05T19:24:56.280Z,100756.34
2022-11-05T19:27:23.919Z,100754.81
2022-11-05T19:29:50.245Z,100756.34
2022-11-05T19:32:16.710Z,100756.81
2022-11-05T19:34:43.047Z,100751.47
2022-11-05T19:37:11.152Z,100751.59
2022-11-05T19:39:37.592Z,100748.63
2022-11-05T19:42:06.548Z,100746.97
2022-11-05T19:44:34.188Z,100758.22
2022-11-05T19:47:00.525Z,100767.19
2022-11-05T19:49:28.608Z,100764.53
2022-11-05T19:51:55.157Z,100761.56
2022-11-05T19:54:21.505Z,100760.31
2022-11-05T19:56:49.607Z,100752.31
2022-11-05T19:59:15.922Z,100751.47
2022-11-05T20:01:43.815Z,100757.34
2022-11-05T20:04:10.268Z,100757.06
2022-11-05T20:06:37.188Z,100745.53
2022-11-05T20:09:21.251Z,100747.25
2022-11-05T20:11:48.703Z,100749.63
2022-11-05T20:14:15.027Z,100752.59
2022-11-05T20:16:45.629Z,100765.28
2022-11-05T20:19:13.423Z,100765.66
2022-11-05T20:21:39.800Z,100768.69
2022-11-05T20:24:06.546Z,100771.00
2022-11-05T20:26:33.275Z,100774.66
2022-11-05T20:29:00.044Z,100768.63
2022-11-05T20:31:26.624Z,100771.00
2022-11-05T20:33:54.356Z,100768.78
2022-11-05T20:36:24.138Z,100766.94
2022-11-05T20:38:51.396Z,100759.59
2022-11-05T20:41:18.409Z,100756.28
2022-11-05T20:43:44.984Z,100759.22
2022-11-05T20:46:12.949Z,100755.44
2022-11-05T20:48:39.276Z,100752.06
2022-11-05T20:51:08.617Z,100759.22
2022-11-05T20:53:35.004Z,100749.69
2022-11-05T20:56:05.148Z,100752.22
2022-11-05T20:58:36.785Z,100760.22
2022-11-05T21:01:03.613Z,100756.03
2022-11-05T21:03:30.129Z,100762.19
2022-11-05T21:05:56.765Z,100761.13
2022-11-05T21:08:24.465Z,100760.44
2022-11-05T21:10:53.223Z,100755.09
2022-11-05T21:13:21.578Z,100756.41
2022-11-05T21:15:52.201Z,100758.75
2022-11-05T21:18:19.273Z,100765.88
2022-11-05T21:20:47.379Z,100759.16
2022-11-05T21:23:14.061Z,100771.22
2022-11-05T21:25:45.120Z,100774.16
2022-11-05T21:28:12.545Z,100774.88
2022-11-05T21:30:40.208Z,100774.16
2022-11-05T21:33:06.580Z,100778.13
2022-11-05T21:35:33.044Z,100777.44
2022-11-05T21:37:59.846Z,100769.84
2022-11-05T21:40:26.280Z,100776.38
2022-11-05T21:42:53.955Z,100767.81
2022-11-05T21:45:20.377Z,100772.41
2022-11-05T21:47:47.962Z,100759.53
2022-11-05T21:50:21.665Z,100753.78
2022-11-05T21:52:50.233Z,100754.47
2022-11-05T21:55:16.607Z,100745.97
2022-11-05T21:57:42.938Z,100730.47
2022-11-05T22:00:11.230Z,100727.47
2022-11-05T22:02:37.923Z,100730.75
2022-11-05T22:05:05.058Z,100734.94
2022-11-05T22:07:37.319Z,100739.53
2022-11-05T22:10:10.726Z,100746.16
2022-11-05T22:12:39.603Z,100735.47
2022-11-05T22:15:06.350Z,100724.81
2022-11-05T22:17:36.672Z,100733.13
2022-11-05T22:20:03.952Z,100721.75
2022-11-05T22:22:32.163Z,100721.50
2022-11-05T22:24:58.498Z,100719.00
2022-11-05T22:27:24.816Z,100708.75
2022-11-05T22:29:51.209Z,100700.75
2022-11-05T22:32:17.593Z,100708.09
2022-11-05T22:34:45.242Z,100704.28
2022-11-05T22:37:12.519Z,100698.13
2022-11-05T22:39:38.887Z,100696.88
2022-11-05T22:42:08.478Z,100697.41
2022-11-05T22:44:35.835Z,100688.75
2022-11-05T22:47:02.323Z,100689.03
2022-11-05T22:49:28.736Z,100680.91
2022-11-05T22:51:56.543Z,100681.50
2022-11-05T22:54:22.856Z,100678.25
2022-11-05T22:56:49.164Z,100667.47
2022-11-05T22:59:15.783Z,100664.56
2022-11-05T23:01:42.931Z,100662.44
2022-11-05T23:04:09.371Z,100659.34
2022-11-05T23:06:35.869Z,100652.06
2022-11-05T23:09:05.389Z,100644.22
2022-11-05T23:11:33.523Z,100650.38
2022-11-05T23:13:59.991Z,100639.31
2022-11-05T23:16:26.336Z,100652.91
2022-11-05T23:18:52.651Z,100640.16
2022-11-05T23:21:22.813Z,100646.06
2022-11-05T23:23:49.616Z,100647.91
2022-11-05T23:26:17.262Z,100642.41
2022-11-05T23:28:46.400Z,100636.25
2022-11-05T23:31:12.713Z,100637.25
2022-11-05T23:33:39.052Z,100638.75
2022-11-05T23:36:11.798Z,100637.63
2022-11-05T23:38:38.480Z,100627.41
2022-11-05T23:41:05.338Z,100623.75
2022-11-05T23:43:33.133Z,100627.41
2022-11-05T23:45:59.412Z,100627.97
2022-11-05T23:48:27.279Z,100623.47
2022-11-05T23:50:56.947Z,100621.19
2022-11-05T23:53:23.728Z,100617.03
2022-11-05T23:55:50.136Z,100617.56
2022-11-05T23:58:16.983Z,100617.56
